PHTO/ITO METAR and TAF weather

Enter ICAO airport designator
Station Type Date Time Source
PHTO METAR 2019/02/17 15:53 UTC NOAA

PHTO 171553Z 00000KT 10SM CLR 15/13 A2995 RMK AO2 SLP141 T01500128 $


Station Type Date Time Source
PHTO Decoded METAR 2019/02/17 15:53 UTC NOAA

HILO INTERNATIONAL AIRPORT, HI, United States (PHTO) 19-43N 155-03W 12M
Feb 17, 2019 - 10:53 AM EST / 2019.02.17 1553 UTC
Wind: Calm:0
Visibility: 10 mile(s):0
Sky conditions: clear
Temperature: 59.0 F (15.0 C)
Dew Point: 55.0 F (12.8 C)
Relative Humidity: 86%
Pressure (altimeter): 29.95 in. Hg (1014 hPa)
ob: PHTO 171553Z 00000KT 10SM CLR 15/13 A2995 RMK AO2 SLP141 T01500128
cycle: 16

Station Type Date Time Source
PHTO TAF 2019/02/17 12:22 UTC NOAA

TAF PHTO 171120Z 1712/1812 23005KT P6SM FEW025 SCT045
FM172000 10012KT P6SM VCSH SCT025 BKN045
FM180400 VRB05KT P6SM VCSH SCT025 BKN045
FM180900 23005KT P6SM VCSH SCT025 BKN045


Example: see airport list